Time;durP1;ratioP1;P1;durP2;ratioP2;P2;SDS_P1;SDS_P2;PMS_P1;PMS_P2;Temp;Humidity;BMP_temperature;BMP_pressure;BME280_temperature;BME280_humidity;BME280_pressure;Samples;Min_cycle;Max_cycle;Signal;HPM_P1;HPM_P2
2023/06/17 00:00:11;;;;;;;;;;;;;;;19.70;57.37;99124.34;4463225;32;34656;-78
2023/06/17 00:02:41;;;;;;;;;;;;;;;19.60;57.56;99124.00;4467149;32;34055;-81
2023/06/17 00:05:10;;;;;;;;;;;;;;;19.73;57.08;99128.56;4483858;32;34367;-79
2023/06/17 00:07:41;;;;;;;;;;;;;;;19.74;56.99;99122.34;4478436;32;33982;-80
2023/06/17 00:10:10;;;;;;;;;;;;;;;19.76;56.74;99123.09;4478820;32;33386;-80
2023/06/17 00:12:43;;;;;;;;;;;;;;;19.42;57.77;99121.59;4476283;31;34637;-81
2023/06/17 00:15:12;;;;;;;;;;;;;;;19.71;56.65;99112.84;4480245;32;34246;-80
2023/06/17 00:17:44;;;;;;;;;;;;;;;19.64;56.17;99108.87;4467067;32;34748;-80
2023/06/17 00:20:14;;;;;;;;;;;;;;;19.76;55.90;99102.91;4477239;32;33373;-81
2023/06/17 00:22:44;;;;;;;;;;;;;;;19.67;55.69;99106.06;4476891;32;33746;-81
2023/06/17 00:25:13;;;;;;;;;;;;;;;19.56;55.09;99105.84;4464165;32;34276;-79
2023/06/17 00:27:43;;;;;;;;;;;;;;;19.32;55.08;99105.53;4467708;32;34012;-80
2023/06/17 00:30:12;;;;;;;;;;;;;;;19.28;55.55;99112.75;4470042;31;33019;-81
2023/06/17 00:32:41;;;;;;;;;;;;;;;19.02;55.57;99108.16;4467487;32;34237;-82
2023/06/17 00:35:10;;;;;;;;;;;;;;;18.94;55.25;99108.56;4475743;32;34905;-80
2023/06/17 00:37:39;;;;;;;;;;;;;;;18.74;55.65;99107.03;4471834;32;34100;-81
2023/06/17 00:40:09;;;;;;;;;;;;;;;18.74;56.07;99113.12;4467029;32;33982;-82
2023/06/17 00:42:39;;;;;;;;;;;;;;;18.55;56.04;99105.41;4462908;32;33166;-80
2023/06/17 00:45:10;;;;;;;;;;;;;;;18.80;55.25;99105.88;4467294;32;33282;-79
2023/06/17 00:47:39;;;;;;;;;;;;;;;18.62;55.21;99102.47;4473986;32;35384;-80
2023/06/17 00:50:09;;;;;;;;;;;;;;;18.38;56.11;99100.25;4482210;32;33061;-78
2023/06/17 00:52:38;;;;;;;;;;;;;;;18.37;56.11;99098.56;4465412;32;33682;-80
2023/06/17 00:55:12;;;;;;;;;;;;;;;18.27;56.54;99095.59;4478656;32;34899;-79
2023/06/17 00:57:41;;;;;;;;;;;;;;;18.22;56.85;99094.13;4478629;32;33956;-80
2023/06/17 01:00:29;;;;;;;;;;;;;;;18.10;57.36;99095.69;4483538;32;33813;-78
2023/06/17 01:02:59;;;;;;;;;;;;;;;17.95;57.85;99089.44;4483558;32;33885;-78
2023/06/17 01:05:28;;;;;;;;;;;;;;;17.88;58.18;99088.09;4478280;32;34649;-79
2023/06/17 01:08:04;;;;;;;;;;;;;;;18.11;57.48;99090.31;4471728;32;34518;-78
2023/06/17 01:10:35;;;;;;;;;;;;;;;18.03;57.91;99089.91;4465912;32;33125;-80
2023/06/17 01:13:06;;;;;;;;;;;;;;;18.21;57.44;99084.56;4483412;32;34218;-81
2023/06/17 01:15:35;;;;;;;;;;;;;;;18.15;57.69;99083.16;4478622;32;33947;-78
2023/06/17 01:18:07;;;;;;;;;;;;;;;18.25;57.58;99079.09;4478650;32;33905;-79
2023/06/17 01:20:37;;;;;;;;;;;;;;;18.47;56.65;99089.25;4478171;32;34037;-80
2023/06/17 01:23:06;;;;;;;;;;;;;;;18.42;56.78;99080.78;4468816;32;33292;-79
2023/06/17 01:25:37;;;;;;;;;;;;;;;18.72;56.21;99093.13;4466203;32;33748;-79
2023/06/17 01:28:17;;;;;;;;;;;;;;;18.75;56.19;99085.94;4470770;32;34444;-79
2023/06/17 01:30:54;;;;;;;;;;;;;;;18.75;56.00;99082.47;4467667;32;33412;-81
2023/06/17 01:33:23;;;;;;;;;;;;;;;18.78;55.95;99086.75;4462354;32;34235;-80
2023/06/17 01:35:56;;;;;;;;;;;;;;;18.58;56.64;99090.44;4469813;32;33498;-79
2023/06/17 01:38:26;;;;;;;;;;;;;;;18.62;56.24;99091.97;4478204;32;34220;-80
2023/06/17 01:40:58;;;;;;;;;;;;;;;18.73;55.70;99092.22;4468159;32;32874;-81
2023/06/17 01:43:28;;;;;;;;;;;;;;;18.61;55.80;99093.75;4474902;32;34205;-79
2023/06/17 01:45:57;;;;;;;;;;;;;;;18.67;55.79;99089.91;4463340;32;33080;-79
2023/06/17 01:48:26;;;;;;;;;;;;;;;18.62;55.84;99087.56;4473708;32;34821;-79
2023/06/17 01:50:55;;;;;;;;;;;;;;;18.43;56.64;99087.72;4468498;32;34032;-80
2023/06/17 01:53:25;;;;;;;;;;;;;;;18.45;56.79;99090.28;4464163;32;33565;-80
2023/06/17 01:55:54;;;;;;;;;;;;;;;18.59;56.41;99092.16;4477348;32;34985;-80
2023/06/17 01:58:26;;;;;;;;;;;;;;;18.59;56.54;99092.97;4478267;32;33949;-80
2023/06/17 02:00:55;;;;;;;;;;;;;;;18.60;56.21;99092.03;4472863;32;33890;-79
2023/06/17 02:03:24;;;;;;;;;;;;;;;18.24;57.39;99092.28;4477745;32;33668;-79
2023/06/17 02:05:53;;;;;;;;;;;;;;;18.58;56.30;99083.41;4477288;32;33929;-80
2023/06/17 02:08:25;;;;;;;;;;;;;;;18.60;56.16;99083.31;4473253;32;34153;-81
2023/06/17 02:10:54;;;;;;;;;;;;;;;18.53;56.13;99085.44;4481809;32;33370;-80
2023/06/17 02:13:28;;;;;;;;;;;;;;;18.40;56.44;99092.31;4462297;32;33533;-79
2023/06/17 02:15:58;;;;;;;;;;;;;;;18.24;56.31;99082.66;4462849;32;33524;-79
2023/06/17 02:18:27;;;;;;;;;;;;;;;17.86;57.68;99085.53;4471268;32;34008;-81
2023/06/17 02:20:56;;;;;;;;;;;;;;;17.98;57.16;99088.47;4475919;32;32762;-81
2023/06/17 02:23:25;;;;;;;;;;;;;;;17.44;58.46;99086.78;4479627;32;34817;-80
2023/06/17 02:25:58;;;;;;;;;;;;;;;17.71;58.02;99083.69;4469210;32;34311;-80
2023/06/17 02:28:32;;;;;;;;;;;;;;;17.47;58.61;99080.56;4461347;32;33849;-81
2023/06/17 02:31:05;;;;;;;;;;;;;;;17.32;59.30;99084.78;4460337;32;33181;-81
2023/06/17 02:33:34;;;;;;;;;;;;;;;17.53;58.37;99079.41;4472230;32;33935;-79
2023/06/17 02:36:02;;;;;;;;;;;;;;;17.67;58.03;99082.16;4471130;32;33878;-81
2023/06/17 02:38:36;;;;;;;;;;;;;;;17.67;58.05;99084.78;4466314;32;33552;-79
2023/06/17 02:41:05;;;;;;;;;;;;;;;17.38;58.74;99087.13;4473217;32;33099;-81
2023/06/17 02:43:36;;;;;;;;;;;;;;;17.23;59.53;99090.53;4474853;32;34201;-79
2023/06/17 02:46:09;;;;;;;;;;;;;;;17.55;58.28;99088.88;4466859;32;34013;-80
2023/06/17 02:48:37;;;;;;;;;;;;;;;17.38;58.89;99088.91;4460826;32;33951;-81
2023/06/17 02:51:07;;;;;;;;;;;;;;;17.38;58.81;99097.59;4467418;32;34085;-79
2023/06/17 02:53:37;;;;;;;;;;;;;;;17.15;59.57;99105.75;4476600;32;33485;-80
2023/06/17 02:56:06;;;;;;;;;;;;;;;17.37;58.95;99106.41;4478026;31;33460;-81
2023/06/17 02:58:43;;;;;;;;;;;;;;;17.28;59.14;99102.47;4467033;31;34076;-81
2023/06/17 03:01:12;;;;;;;;;;;;;;;17.16;59.55;99102.25;4467850;32;33363;-80
2023/06/17 03:03:45;;;;;;;;;;;;;;;17.27;59.51;99099.91;4463538;32;34450;-80
2023/06/17 03:06:15;;;;;;;;;;;;;;;17.36;59.19;99094.22;4471345;32;33861;-79
2023/06/17 03:08:47;;;;;;;;;;;;;;;17.18;59.57;99100.38;4468384;32;33528;-79
2023/06/17 03:11:16;;;;;;;;;;;;;;;16.97;60.41;99097.88;4460816;32;33054;-81
2023/06/17 03:13:46;;;;;;;;;;;;;;;17.24;59.57;99097.44;4463674;32;33283;-80
2023/06/17 03:16:16;;;;;;;;;;;;;;;17.13;59.78;99103.25;4465023;32;34917;-81
2023/06/17 03:18:47;;;;;;;;;;;;;;;17.13;60.03;99105.88;4465945;32;33167;-80
2023/06/17 03:21:17;;;;;;;;;;;;;;;16.81;60.97;99110.88;4473417;32;32595;-79
2023/06/17 03:23:48;;;;;;;;;;;;;;;16.80;61.06;99113.59;4476764;32;33634;-80
2023/06/17 03:26:17;;;;;;;;;;;;;;;17.02;60.52;99103.75;4472142;32;35189;-79
2023/06/17 03:28:50;;;;;;;;;;;;;;;16.93;60.71;99105.97;4473727;32;34536;-79
2023/06/17 03:31:21;;;;;;;;;;;;;;;17.03;60.62;99121.19;4463425;32;32639;-81
2023/06/17 03:33:51;;;;;;;;;;;;;;;16.84;61.07;99115.09;4468421;32;34432;-81
2023/06/17 03:36:24;;;;;;;;;;;;;;;16.90;60.98;99119.22;4467748;32;32566;-81
2023/06/17 03:38:56;;;;;;;;;;;;;;;16.72;61.88;99128.75;4460196;32;33678;-79
2023/06/17 03:41:26;;;;;;;;;;;;;;;16.83;61.37;99124.75;4462487;32;33445;-81
2023/06/17 03:43:57;;;;;;;;;;;;;;;17.12;60.72;99126.88;4471817;32;33051;-79
2023/06/17 03:46:26;;;;;;;;;;;;;;;17.14;60.67;99125.88;4469376;32;36297;-80
2023/06/17 03:48:58;;;;;;;;;;;;;;;17.29;59.96;99126.91;4448470;32;34163;-80
2023/06/17 03:51:27;;;;;;;;;;;;;;;17.23;60.09;99130.69;4463900;32;33905;-80
2023/06/17 03:53:56;;;;;;;;;;;;;;;17.19;60.21;99131.75;4465750;32;34745;-79
2023/06/17 03:56:26;;;;;;;;;;;;;;;17.00;60.76;99129.19;4461907;32;34063;-79
2023/06/17 03:58:55;;;;;;;;;;;;;;;16.84;61.58;99143.94;4471371;32;34120;-80
2023/06/17 04:01:25;;;;;;;;;;;;;;;17.21;60.60;99136.94;4476605;32;34027;-80
2023/06/17 04:03:57;;;;;;;;;;;;;;;17.16;60.38;99131.06;4476582;32;34935;-81
2023/06/17 04:06:26;;;;;;;;;;;;;;;17.07;60.75;99129.72;4481958;32;35016;-80
2023/06/17 04:08:55;;;;;;;;;;;;;;;17.10;60.66;99128.72;4476439;32;34113;-80
2023/06/17 04:11:26;;;;;;;;;;;;;;;17.32;59.77;99129.38;4476945;32;33745;-79
2023/06/17 04:13:55;;;;;;;;;;;;;;;17.59;59.30;99132.41;4476387;32;34817;-81
2023/06/17 04:16:30;;;;;;;;;;;;;;;17.84;58.43;99131.16;4476024;32;36080;-82
2023/06/17 04:18:59;;;;;;;;;;;;;;;18.00;57.72;99131.19;4475990;32;34059;-80
2023/06/17 04:21:28;;;;;;;;;;;;;;;18.11;57.31;99129.69;4476421;32;33468;-81
2023/06/17 04:23:56;;;;;;;;;;;;;;;18.51;55.88;99147.72;4476678;32;33786;-82
2023/06/17 04:26:25;;;;;;;;;;;;;;;18.97;54.65;99146.06;4465813;32;33867;-82
2023/06/17 04:28:54;;;;;;;;;;;;;;;19.14;54.11;99145.09;4469095;32;34465;-82
2023/06/17 04:31:27;;;;;;;;;;;;;;;18.87;54.69;99144.88;4467754;32;33045;-79
2023/06/17 04:34:00;;;;;;;;;;;;;;;19.08;54.53;99141.97;4462487;31;34047;-82
2023/06/17 04:36:32;;;;;;;;;;;;;;;19.04;54.51;99143.94;4473325;32;34902;-81
2023/06/17 04:39:01;;;;;;;;;;;;;;;19.14;53.74;99150.34;4439024;32;1102910;-82
2023/06/17 04:41:32;;;;;;;;;;;;;;;19.22;53.84;99151.69;4471018;32;32834;-81
2023/06/17 04:44:02;;;;;;;;;;;;;;;19.41;53.65;99147.06;4466881;32;34748;-80
2023/06/17 04:46:32;;;;;;;;;;;;;;;19.53;52.70;99154.25;4469566;32;33520;-81
2023/06/17 04:49:00;;;;;;;;;;;;;;;19.29;53.00;99155.69;4477064;32;33838;-80
2023/06/17 04:51:30;;;;;;;;;;;;;;;19.47;53.28;99149.31;4475480;32;33702;-81
2023/06/17 04:53:59;;;;;;;;;;;;;;;19.53;53.17;99153.41;4464043;32;33842;-80
2023/06/17 04:56:28;;;;;;;;;;;;;;;19.82;52.34;99155.19;4470158;32;33488;-80
2023/06/17 04:58:57;;;;;;;;;;;;;;;19.65;52.85;99163.19;4470792;32;34592;-80
2023/06/17 05:01:28;;;;;;;;;;;;;;;19.71;52.67;99148.84;4471585;32;32806;-80
2023/06/17 05:03:58;;;;;;;;;;;;;;;19.14;54.08;99150.34;4470819;31;34373;-81
2023/06/17 05:06:27;;;;;;;;;;;;;;;19.02;54.84;99151.06;4463456;32;33887;-81
2023/06/17 05:08:56;;;;;;;;;;;;;;;18.91;54.81;99154.28;4471672;32;33728;-82
2023/06/17 05:11:27;;;;;;;;;;;;;;;18.99;55.13;99156.47;4469499;32;33970;-80
2023/06/17 05:13:56;;;;;;;;;;;;;;;18.81;55.28;99155.72;4473878;32;33696;-82
2023/06/17 05:16:25;;;;;;;;;;;;;;;18.60;56.05;99149.00;4464680;32;34201;-79
2023/06/17 05:18:53;;;;;;;;;;;;;;;18.37;57.15;99163.37;4474614;32;34964;-80
2023/06/17 05:21:23;;;;;;;;;;;;;;;18.79;56.82;99165.47;4472451;32;33131;-80
2023/06/17 05:23:54;;;;;;;;;;;;;;;19.05;55.38;99168.44;4483264;32;34614;-80
2023/06/17 05:26:23;;;;;;;;;;;;;;;19.15;55.38;99157.28;4473580;32;35001;-79
2023/06/17 05:28:52;;;;;;;;;;;;;;;19.38;54.63;99160.41;4470534;32;33753;-82
2023/06/17 05:31:23;;;;;;;;;;;;;;;19.54;53.94;99161.19;4462195;32;32498;-80
2023/06/17 05:33:52;;;;;;;;;;;;;;;19.68;53.58;99170.09;4461717;32;34732;-79
2023/06/17 05:36:21;;;;;;;;;;;;;;;19.41;53.98;99170.75;4466209;32;33723;-80
2023/06/17 05:38:55;;;;;;;;;;;;;;;18.90;55.71;99176.25;4461501;32;33854;-80
2023/06/17 05:41:27;;;;;;;;;;;;;;;18.92;56.41;99173.53;4472812;32;33963;-80
2023/06/17 05:43:56;;;;;;;;;;;;;;;19.06;56.11;99176.22;4478065;32;33686;-80
2023/06/17 05:46:25;;;;;;;;;;;;;;;19.05;56.16;99178.94;4479762;32;35159;-79
2023/06/17 05:48:54;;;;;;;;;;;;;;;18.97;56.36;99182.00;4463601;32;34585;-81
2023/06/17 05:51:23;;;;;;;;;;;;;;;18.77;56.63;99180.47;4467287;32;33796;-81
2023/06/17 05:53:53;;;;;;;;;;;;;;;18.93;56.54;99193.63;4461377;32;34863;-81
2023/06/17 05:56:23;;;;;;;;;;;;;;;19.02;56.41;99192.28;4469260;32;34946;-78
2023/06/17 05:58:52;;;;;;;;;;;;;;;19.04;56.43;99204.41;4483226;32;34170;-80
2023/06/17 06:01:25;;;;;;;;;;;;;;;18.87;56.32;99193.94;4464383;32;33042;-80
2023/06/17 06:03:55;;;;;;;;;;;;;;;18.47;57.90;99202.19;4462443;32;33100;-80
2023/06/17 06:06:24;;;;;;;;;;;;;;;18.29;58.84;99195.28;4464672;32;34032;-82
2023/06/17 06:08:53;;;;;;;;;;;;;;;18.67;57.99;99198.47;4482588;32;34788;-81
2023/06/17 06:11:23;;;;;;;;;;;;;;;18.39;58.89;99196.50;4478488;32;33319;-82
2023/06/17 06:13:52;;;;;;;;;;;;;;;18.50;58.91;99199.41;4456636;32;33359;-82
2023/06/17 06:16:22;;;;;;;;;;;;;;;18.70;58.61;99195.72;4449443;32;33749;-80
2023/06/17 06:18:50;;;;;;;;;;;;;;;18.73;57.97;99198.16;4471726;32;34209;-81
2023/06/17 06:21:19;;;;;;;;;;;;;;;18.78;57.62;99200.56;4467320;32;32617;-79
2023/06/17 06:23:49;;;;;;;;;;;;;;;18.63;58.10;99196.97;4462582;32;33891;-81
2023/06/17 06:26:17;;;;;;;;;;;;;;;18.79;58.68;99204.88;4461792;32;34751;-78
2023/06/17 06:28:47;;;;;;;;;;;;;;;18.88;58.22;99191.25;4464496;32;33790;-83
2023/06/17 06:31:17;;;;;;;;;;;;;;;19.21;57.39;99199.94;4468707;32;32902;-80
2023/06/17 06:33:45;;;;;;;;;;;;;;;19.46;56.75;99200.25;4465039;32;33575;-80
2023/06/17 06:36:16;;;;;;;;;;;;;;;19.18;57.22;99195.72;4459500;32;33547;-79
2023/06/17 06:38:48;;;;;;;;;;;;;;;19.09;57.20;99206.78;4478540;32;33621;-82
2023/06/17 06:41:19;;;;;;;;;;;;;;;19.20;56.81;99207.00;4457233;32;31769;-79
2023/06/17 06:43:53;;;;;;;;;;;;;;;19.13;57.30;99206.50;4471669;32;35028;-81
2023/06/17 06:46:23;;;;;;;;;;;;;;;19.49;56.49;99205.34;4474421;32;34025;-80
2023/06/17 06:48:52;;;;;;;;;;;;;;;19.57;56.48;99211.03;4462192;32;34021;-79
2023/06/17 06:51:21;;;;;;;;;;;;;;;19.52;56.30;99212.19;4467392;32;33998;-81
2023/06/17 06:53:51;;;;;;;;;;;;;;;19.75;56.19;99216.19;4474489;32;34706;-79
2023/06/17 06:56:20;;;;;;;;;;;;;;;19.76;55.44;99207.31;4469083;32;34794;-79
2023/06/17 06:58:50;;;;;;;;;;;;;;;19.96;55.29;99209.66;4470491;32;33465;-81
2023/06/17 07:01:21;;;;;;;;;;;;;;;19.78;55.75;99216.00;4468554;32;33240;-82
2023/06/17 07:03:53;;;;;;;;;;;;;;;20.05;55.28;99205.59;4472010;32;35055;-82
2023/06/17 07:06:23;;;;;;;;;;;;;;;20.29;54.96;99205.91;4474620;32;34064;-80
2023/06/17 07:08:51;;;;;;;;;;;;;;;20.30;54.61;99212.88;4474564;32;33907;-81
2023/06/17 07:11:21;;;;;;;;;;;;;;;20.38;53.57;99215.87;4472405;32;33737;-80
2023/06/17 07:13:50;;;;;;;;;;;;;;;20.30;54.32;99217.31;4471260;32;33937;-80
2023/06/17 07:16:18;;;;;;;;;;;;;;;20.33;54.92;99207.41;4469024;32;34136;-80
2023/06/17 07:18:50;;;;;;;;;;;;;;;20.51;54.61;99212.50;4469270;32;33447;-80
2023/06/17 07:21:19;;;;;;;;;;;;;;;20.69;53.50;99214.03;4471522;31;32434;-80
2023/06/17 07:23:58;;;;;;;;;;;;;;;20.87;53.40;99204.09;4472899;32;34858;-81
2023/06/17 07:26:31;;;;;;;;;;;;;;;20.91;52.51;99208.25;4468376;32;33840;-79
2023/06/17 07:29:03;;;;;;;;;;;;;;;21.16;51.61;99212.78;4477094;32;32371;-80
2023/06/17 07:31:32;;;;;;;;;;;;;;;21.29;52.21;99208.44;4465539;32;35999;-82
2023/06/17 07:34:02;;;;;;;;;;;;;;;21.49;52.12;99211.59;4476307;32;34925;-81
2023/06/17 07:36:34;;;;;;;;;;;;;;;21.65;51.04;99207.00;4463354;32;34702;-79
2023/06/17 07:39:05;;;;;;;;;;;;;;;21.67;50.69;99205.09;4464678;32;34522;-78
2023/06/17 07:41:37;;;;;;;;;;;;;;;21.72;49.30;99204.75;4472167;32;32337;-81
2023/06/17 07:44:07;;;;;;;;;;;;;;;22.05;48.66;99206.06;4474926;32;34540;-81
2023/06/17 07:46:35;;;;;;;;;;;;;;;21.86;49.05;99199.41;4472258;32;34847;-79
2023/06/17 07:49:08;;;;;;;;;;;;;;;21.98;49.05;99195.09;4459644;32;33693;-80
2023/06/17 07:51:39;;;;;;;;;;;;;;;21.98;48.54;99200.37;4479432;32;33736;-79
2023/06/17 07:54:08;;;;;;;;;;;;;;;21.97;49.90;99203.97;4470848;32;33836;-81
2023/06/17 07:56:36;;;;;;;;;;;;;;;21.91;47.69;99194.66;4472384;32;33802;-81
2023/06/17 07:59:05;;;;;;;;;;;;;;;21.78;47.96;99201.72;4475974;32;34042;-79
2023/06/17 08:01:37;;;;;;;;;;;;;;;21.80;48.56;99193.72;4480689;32;33252;-79
2023/06/17 08:04:06;;;;;;;;;;;;;;;21.83;47.72;99199.63;4477363;32;34973;-81
2023/06/17 08:06:40;;;;;;;;;;;;;;;21.62;48.36;99196.59;4478577;32;33667;-81
2023/06/17 08:09:10;;;;;;;;;;;;;;;21.54;48.34;99195.44;4471432;32;32651;-79
2023/06/17 08:11:40;;;;;;;;;;;;;;;21.58;49.52;99197.78;4475905;32;33347;-79
2023/06/17 08:14:13;;;;;;;;;;;;;;;21.78;48.81;99198.25;4473666;32;33696;-81
2023/06/17 08:16:45;;;;;;;;;;;;;;;22.01;49.02;99200.19;4471780;32;34230;-80
2023/06/17 08:19:14;;;;;;;;;;;;;;;21.81;49.04;99201.50;4464884;32;35238;-79
2023/06/17 08:21:47;;;;;;;;;;;;;;;21.96;48.74;99207.53;4472141;32;32932;-81
2023/06/17 08:24:19;;;;;;;;;;;;;;;21.98;49.44;99204.81;4476839;32;33785;-80
2023/06/17 08:26:48;;;;;;;;;;;;;;;22.17;48.63;99206.06;4480230;32;34536;-80
2023/06/17 08:29:17;;;;;;;;;;;;;;;22.02;47.91;99206.28;4474330;32;34230;-80
2023/06/17 08:31:46;;;;;;;;;;;;;;;22.15;48.17;99207.97;4466728;32;33117;-79
2023/06/17 08:34:15;;;;;;;;;;;;;;;22.22;46.75;99204.94;4463354;32;34384;-81
2023/06/17 08:36:46;;;;;;;;;;;;;;;22.52;46.90;99213.41;4474720;32;34037;-79
2023/06/17 08:39:15;;;;;;;;;;;;;;;22.11;47.48;99209.16;4475728;32;34155;-79
2023/06/17 08:41:47;;;;;;;;;;;;;;;22.13;48.10;99219.59;4479256;32;32602;-80
2023/06/17 08:44:16;;;;;;;;;;;;;;;22.23;48.10;99210.16;4474936;32;34935;-78
2023/06/17 08:46:44;;;;;;;;;;;;;;;22.26;47.83;99209.09;4466130;32;33511;-80
2023/06/17 08:49:13;;;;;;;;;;;;;;;22.93;45.82;99211.38;4467529;32;33969;-79
2023/06/17 08:51:42;;;;;;;;;;;;;;;22.95;46.04;99210.34;4474604;32;32941;-79
2023/06/17 08:54:12;;;;;;;;;;;;;;;22.75;46.71;99210.91;4474466;31;33709;-81
2023/06/17 08:56:41;;;;;;;;;;;;;;;23.15;46.61;99202.81;4463937;32;34849;-79
2023/06/17 08:59:10;;;;;;;;;;;;;;;23.06;45.65;99214.03;4475710;32;34544;-81
2023/06/17 09:01:40;;;;;;;;;;;;;;;23.25;44.99;99210.91;4468352;32;35700;-81
2023/06/17 09:04:08;;;;;;;;;;;;;;;23.56;45.54;99214.78;4468848;32;34279;-79
2023/06/17 09:06:37;;;;;;;;;;;;;;;23.72;45.66;99215.31;4467449;32;33765;-80
2023/06/17 09:09:06;;;;;;;;;;;;;;;23.82;44.13;99216.34;4469929;32;33890;-78
2023/06/17 09:11:36;;;;;;;;;;;;;;;23.79;43.98;99208.63;4469117;32;32744;-79
2023/06/17 09:14:05;;;;;;;;;;;;;;;23.90;43.82;99214.94;4465267;32;33865;-81
2023/06/17 09:16:35;;;;;;;;;;;;;;;24.09;42.99;99217.00;4470965;32;34284;-79
2023/06/17 09:19:04;;;;;;;;;;;;;;;24.27;42.32;99212.94;4472633;32;34261;-79
2023/06/17 09:21:33;;;;;;;;;;;;;;;23.85;43.31;99205.50;4476019;32;33837;-80
2023/06/17 09:24:06;;;;;;;;;;;;;;;23.71;41.92;99199.53;4461867;32;33454;-79
2023/06/17 09:26:39;;;;;;;;;;;;;;;23.63;42.79;99208.03;4466027;32;34962;-81
2023/06/17 09:29:09;;;;;;;;;;;;;;;23.63;42.64;99216.84;4476707;32;34119;-77
2023/06/17 09:31:47;;;;;;;;;;;;;;;23.40;42.70;99217.72;4473592;32;33527;-79
2023/06/17 09:34:16;;;;;;;;;;;;;;;23.76;43.45;99224.75;4466267;32;34300;-80
2023/06/17 09:36:44;;;;;;;;;;;;;;;23.69;43.56;99207.59;4472214;32;33819;-79
2023/06/17 09:39:14;;;;;;;;;;;;;;;24.06;44.40;99213.59;4471810;32;34451;-78
2023/06/17 09:41:45;;;;;;;;;;;;;;;23.89;43.18;99205.28;4472452;32;33566;-79
2023/06/17 09:44:14;;;;;;;;;;;;;;;23.71;44.12;99215.44;4483033;32;34554;-80
2023/06/17 09:46:46;;;;;;;;;;;;;;;23.89;44.30;99215.87;4478205;32;34224;-79
2023/06/17 09:49:16;;;;;;;;;;;;;;;24.11;44.60;99217.72;4478622;32;32566;-79
2023/06/17 09:51:47;;;;;;;;;;;;;;;24.38;42.46;99220.03;4478395;32;33757;-80
2023/06/17 09:54:16;;;;;;;;;;;;;;;24.11;41.76;99213.25;4471478;32;34099;-80
2023/06/17 09:56:46;;;;;;;;;;;;;;;24.30;43.25;99209.19;4467287;32;34600;-81
2023/06/17 09:59:21;;;;;;;;;;;;;;;24.47;42.87;99216.69;4475984;32;34040;-80
2023/06/17 10:01:54;;;;;;;;;;;;;;;24.81;41.89;99214.03;4470170;32;33155;-80
2023/06/17 10:04:26;;;;;;;;;;;;;;;24.45;41.70;99215.94;4468024;32;33965;-78
2023/06/17 10:06:55;;;;;;;;;;;;;;;24.46;42.29;99209.72;4480133;32;32545;-79
2023/06/17 10:09:24;;;;;;;;;;;;;;;24.72;42.42;99212.97;4466732;32;34493;-81
2023/06/17 10:11:55;;;;;;;;;;;;;;;24.49;41.58;99212.12;4477595;32;32991;-79
2023/06/17 10:14:25;;;;;;;;;;;;;;;24.44;41.09;99219.56;4478137;32;33831;-79
2023/06/17 10:16:54;;;;;;;;;;;;;;;24.33;41.37;99208.94;4477185;32;34118;-80
2023/06/17 10:19:23;;;;;;;;;;;;;;;24.60;41.13;99217.44;4482669;32;33777;-80
2023/06/17 10:21:52;;;;;;;;;;;;;;;24.41;40.40;99218.00;4477032;32;33255;-78
2023/06/17 10:24:22;;;;;;;;;;;;;;;24.16;41.10;99223.50;4477243;32;33998;-81
2023/06/17 10:26:51;;;;;;;;;;;;;;;23.83;41.83;99222.50;4466006;32;33960;-81
2023/06/17 10:29:24;;;;;;;;;;;;;;;24.35;41.68;99213.16;4480437;32;34156;-79
2023/06/17 10:31:53;;;;;;;;;;;;;;;24.20;41.59;99222.31;4477339;32;32384;-80
2023/06/17 10:34:22;;;;;;;;;;;;;;;24.23;41.70;99217.59;4477607;32;34006;-81
2023/06/17 10:36:51;;;;;;;;;;;;;;;24.42;41.04;99217.03;4476503;32;33888;-79
2023/06/17 10:39:22;;;;;;;;;;;;;;;24.48;41.46;99229.00;4474354;32;33956;-81
2023/06/17 10:41:57;;;;;;;;;;;;;;;24.37;42.79;99219.19;4481742;32;33399;-80
2023/06/17 10:44:42;;;;;;;;;;;;;;;24.52;41.85;99216.34;4475167;32;34585;-81
2023/06/17 10:47:16;;;;;;;;;;;;;;;24.50;41.44;99208.53;4471777;32;34831;-79
2023/06/17 10:49:46;;;;;;;;;;;;;;;24.50;42.39;99219.12;4470985;31;33432;-79
2023/06/17 10:52:15;;;;;;;;;;;;;;;24.81;42.56;99214.88;4476201;32;33339;-80
2023/06/17 10:54:45;;;;;;;;;;;;;;;24.92;41.53;99217.53;4477407;32;33871;-80
2023/06/17 10:57:14;;;;;;;;;;;;;;;24.94;41.59;99213.91;4473912;32;35028;-81
2023/06/17 10:59:44;;;;;;;;;;;;;;;24.89;40.63;99222.25;4464995;32;32234;-80
2023/06/17 11:02:13;;;;;;;;;;;;;;;24.91;40.11;99222.94;4461988;32;32894;-81
2023/06/17 11:04:42;;;;;;;;;;;;;;;24.94;40.43;99214.75;4467005;32;34909;-80
2023/06/17 11:07:14;;;;;;;;;;;;;;;25.21;40.35;99205.56;4461761;32;35061;-81
2023/06/17 11:09:43;;;;;;;;;;;;;;;25.57;40.51;99212.31;4464214;32;34313;-80
2023/06/17 11:12:16;;;;;;;;;;;;;;;25.58;39.06;99210.47;4465444;32;33606;-80
2023/06/17 11:14:46;;;;;;;;;;;;;;;25.64;39.22;99209.97;4465782;32;34352;-81
2023/06/17 11:17:15;;;;;;;;;;;;;;;25.44;38.66;99201.88;4474021;31;32917;-80
2023/06/17 11:19:46;;;;;;;;;;;;;;;25.56;39.38;99199.97;4465796;32;34562;-79
2023/06/17 11:22:15;;;;;;;;;;;;;;;25.69;38.15;99202.47;4472926;32;33182;-80
2023/06/17 11:24:45;;;;;;;;;;;;;;;25.61;38.60;99215.53;4473101;32;33685;-78
2023/06/17 11:27:13;;;;;;;;;;;;;;;25.85;38.29;99208.16;4473843;32;34167;-79
2023/06/17 11:29:46;;;;;;;;;;;;;;;25.86;36.83;99215.22;4475111;32;33958;-80
2023/06/17 11:32:15;;;;;;;;;;;;;;;25.75;37.07;99215.22;4467686;31;32361;-78
2023/06/17 11:34:46;;;;;;;;;;;;;;;25.48;37.84;99213.91;4471034;32;34864;-78
2023/06/17 11:37:16;;;;;;;;;;;;;;;25.38;38.80;99210.31;4478650;32;35103;-79
2023/06/17 11:39:45;;;;;;;;;;;;;;;25.57;38.48;99209.66;4483931;32;33196;-80
2023/06/17 11:42:13;;;;;;;;;;;;;;;25.53;38.90;99214.34;4479017;32;32878;-80
2023/06/17 11:44:42;;;;;;;;;;;;;;;25.34;39.18;99206.22;4478993;32;33726;-81
2023/06/17 11:47:15;;;;;;;;;;;;;;;25.63;38.18;99211.78;4478137;32;34301;-79
2023/06/17 11:49:45;;;;;;;;;;;;;;;25.68;37.86;99206.91;4482998;32;34924;-81
2023/06/17 11:52:14;;;;;;;;;;;;;;;26.01;37.97;99199.78;4477656;32;34099;-79
2023/06/17 11:54:48;;;;;;;;;;;;;;;26.10;37.04;99191.00;4479824;32;34964;-79
2023/06/17 11:57:18;;;;;;;;;;;;;;;25.94;38.01;99199.44;4478967;32;34274;-80
2023/06/17 11:59:48;;;;;;;;;;;;;;;25.77;36.98;99208.81;4479134;32;34233;-79
2023/06/17 12:02:18;;;;;;;;;;;;;;;25.64;37.10;99207.31;4481643;32;34080;-80
2023/06/17 12:04:47;;;;;;;;;;;;;;;25.36;36.93;99200.78;4476529;32;32868;-80
2023/06/17 12:07:19;;;;;;;;;;;;;;;25.49;37.54;99199.66;4477370;32;34740;-79
2023/06/17 12:09:51;;;;;;;;;;;;;;;25.76;37.14;99190.34;4478523;32;33999;-79
2023/06/17 12:12:30;;;;;;;;;;;;;;;25.88;36.33;99191.16;4484132;32;33483;-78
2023/06/17 12:15:03;;;;;;;;;;;;;;;25.81;37.10;99203.25;4479759;32;34795;-81
2023/06/17 12:17:45;;;;;;;;;;;;;;;25.90;36.64;99189.19;4475931;32;34709;-78
2023/06/17 12:20:15;;;;;;;;;;;;;;;26.08;36.18;99197.44;4476013;32;34274;-78
2023/06/17 12:22:44;;;;;;;;;;;;;;;26.05;37.25;99197.72;4474643;32;32862;-79
2023/06/17 12:25:13;;;;;;;;;;;;;;;25.89;36.30;99195.50;4483645;31;33767;-80
2023/06/17 12:27:43;;;;;;;;;;;;;;;25.98;36.27;99191.22;4479862;32;34341;-81
2023/06/17 12:30:12;;;;;;;;;;;;;;;25.88;36.04;99177.87;4478919;32;33169;-80
2023/06/17 12:32:42;;;;;;;;;;;;;;;26.08;36.17;99176.16;4478665;32;33554;-80
2023/06/17 12:35:14;;;;;;;;;;;;;;;26.08;34.65;99179.66;4478910;32;33559;-80
2023/06/17 12:37:43;;;;;;;;;;;;;;;26.17;35.17;99172.72;4483678;32;34699;-78
2023/06/17 12:40:12;;;;;;;;;;;;;;;26.96;34.53;99172.84;4477344;32;34044;-78
2023/06/17 12:42:41;;;;;;;;;;;;;;;26.88;34.22;99169.22;4475872;32;32835;-79
2023/06/17 12:45:12;;;;;;;;;;;;;;;27.18;34.58;99177.13;4471855;32;33916;-80
2023/06/17 12:47:41;;;;;;;;;;;;;;;27.33;34.83;99182.03;4473226;32;34635;-80
2023/06/17 12:50:15;;;;;;;;;;;;;;;27.73;32.73;99178.37;4476885;32;35128;-80
2023/06/17 12:52:51;;;;;;;;;;;;;;;27.63;31.83;99173.91;4459576;32;33388;-78
2023/06/17 12:55:22;;;;;;;;;;;;;;;27.34;32.87;99176.59;4459638;32;34062;-81
2023/06/17 12:57:51;;;;;;;;;;;;;;;26.99;34.75;99171.75;4459474;32;34816;-80
2023/06/17 13:00:21;;;;;;;;;;;;;;;26.86;35.71;99171.19;4474299;32;33765;-78
2023/06/17 13:02:51;;;;;;;;;;;;;;;26.64;35.97;99162.44;4477988;32;33858;-79